Time;durP1;ratioP1;P1;durP2;ratioP2;P2;SDS_P1;SDS_P2;PMS_P1;PMS_P2;Temp;Humidity;BMP_temperature;BMP_pressure;BME280_temperature;BME280_humidity;BME280_pressure;Samples;Min_cycle;Max_cycle;Signal;HPM_P1;HPM_P2
2023/08/01 00:02:03;;;;;;;5.07;2.88;;;;;;;17.00;100.00;97873.69;5048672;28;20053;-75
2023/08/01 00:04:28;;;;;;;5.13;2.72;;;;;;;17.01;100.00;97877.22;5043925;28;20021;-74
2023/08/01 00:06:55;;;;;;;4.95;2.60;;;;;;;16.92;100.00;97862.44;5073809;22;20097;-66
2023/08/01 00:09:20;;;;;;;5.72;2.75;;;;;;;16.93;100.00;97877.75;5026322;28;20037;-69
2023/08/01 00:11:45;;;;;;;7.63;3.42;;;;;;;16.89;100.00;97874.72;5020866;28;20033;-69
2023/08/01 00:14:11;;;;;;;10.25;3.00;;;;;;;16.80;100.00;97879.88;5040428;28;20029;-70
2023/08/01 00:16:36;;;;;;;5.32;2.75;;;;;;;16.75;100.00;97876.28;5040026;28;20017;-62
2023/08/01 00:19:02;;;;;;;5.57;3.00;;;;;;;16.68;100.00;97876.50;5033215;28;20020;-62
2023/08/01 00:21:27;;;;;;;4.88;3.10;;;;;;;16.58;100.00;97868.25;5035834;28;20112;-62
2023/08/01 00:23:52;;;;;;;10.07;3.33;;;;;;;16.53;100.00;97882.72;5035137;28;20028;-62
2023/08/01 00:26:18;;;;;;;9.82;3.47;;;;;;;16.50;100.00;97876.94;5034061;28;20029;-68
2023/08/01 00:28:43;;;;;;;7.93;3.65;;;;;;;16.50;100.00;97874.22;5037314;28;20026;-68
2023/08/01 00:31:09;;;;;;;9.43;4.55;;;;;;;16.47;100.00;97881.03;5034369;28;20025;-68
2023/08/01 00:33:34;;;;;;;7.57;3.80;;;;;;;16.42;100.00;97867.34;5027599;28;20033;-66
2023/08/01 00:36:00;;;;;;;9.50;4.32;;;;;;;16.38;100.00;97861.59;5032981;28;20025;-68
2023/08/01 00:38:26;;;;;;;6.90;3.58;;;;;;;16.34;100.00;97854.19;5028230;28;20408;-69
2023/08/01 00:40:52;;;;;;;11.18;4.22;;;;;;;16.37;100.00;97853.66;5032642;28;20115;-68
2023/08/01 00:43:17;;;;;;;10.02;4.00;;;;;;;16.35;100.00;97845.75;5026712;28;20123;-63
2023/08/01 00:45:43;;;;;;;7.00;3.60;;;;;;;16.32;100.00;97821.72;5033771;28;20029;-62
2023/08/01 00:48:08;;;;;;;9.07;3.47;;;;;;;16.30;100.00;97821.16;5041920;28;20016;-63
2023/08/01 00:50:34;;;;;;;9.73;3.55;;;;;;;16.33;100.00;97811.63;5032347;28;20465;-63
2023/08/01 00:53:00;;;;;;;5.90;3.30;;;;;;;16.28;100.00;97801.50;5021305;28;20435;-63
2023/08/01 00:55:29;;;;;;;8.00;3.88;;;;;;;16.24;100.00;97772.25;5033271;28;20063;-62
2023/08/01 00:57:54;;;;;;;8.55;4.00;;;;;;;16.19;100.00;97764.84;5050337;28;20531;-62
2023/08/01 01:00:20;;;;;;;9.35;3.88;;;;;;;16.25;100.00;97763.00;5030211;28;20021;-62
2023/08/01 01:02:45;;;;;;;14.45;4.10;;;;;;;16.26;100.00;97770.91;5036610;28;20025;-62
2023/08/01 01:05:13;;;;;;;9.52;3.35;;;;;;;16.29;100.00;97759.44;5046107;28;20094;-62
2023/08/01 01:07:39;;;;;;;6.82;3.10;;;;;;;16.30;100.00;97765.75;5030751;28;20037;-61
2023/08/01 01:10:05;;;;;;;10.30;3.63;;;;;;;16.31;100.00;97757.28;5032758;28;20079;-61
2023/08/01 01:12:30;;;;;;;10.85;3.45;;;;;;;16.28;100.00;97760.56;5029268;28;20032;-61
2023/08/01 01:14:55;;;;;;;7.10;3.67;;;;;;;16.33;100.00;97738.75;5037103;28;20374;-61
2023/08/01 01:17:21;;;;;;;7.63;3.03;;;;;;;16.36;100.00;97740.13;5032583;28;20017;-61
2023/08/01 01:19:46;;;;;;;8.65;3.10;;;;;;;16.46;100.00;97736.63;5037938;28;20059;-61
2023/08/01 01:22:12;;;;;;;5.53;3.00;;;;;;;16.45;100.00;97741.22;5039453;28;20033;-62
2023/08/01 01:24:40;;;;;;;8.70;3.40;;;;;;;16.51;100.00;97731.16;5054495;28;20036;-61
2023/08/01 01:27:08;;;;;;;9.97;3.10;;;;;;;16.53;100.00;97728.97;5032822;28;20029;-61
2023/08/01 01:29:34;;;;;;;9.38;3.00;;;;;;;16.54;100.00;97745.09;5051397;28;20078;-61
2023/08/01 01:32:01;;;;;;;7.68;3.13;;;;;;;16.51;100.00;97744.81;5038456;28;20029;-62
2023/08/01 01:34:28;;;;;;;5.90;3.70;;;;;;;16.50;100.00;97749.44;5037933;28;20032;-63
2023/08/01 01:36:53;;;;;;;6.43;3.35;;;;;;;16.43;100.00;97755.16;5035057;28;20103;-62
2023/08/01 01:39:19;;;;;;;7.82;3.25;;;;;;;16.36;100.00;97757.31;5030264;28;20104;-63
2023/08/01 01:41:44;;;;;;;7.00;3.35;;;;;;;16.50;100.00;97751.34;5028718;28;20028;-62
2023/08/01 01:44:10;;;;;;;6.55;3.13;;;;;;;16.43;100.00;97766.09;5038148;28;20075;-68
2023/08/01 01:46:35;;;;;;;7.78;3.33;;;;;;;16.36;100.00;97765.50;5043856;28;20035;-69
2023/08/01 01:49:00;;;;;;;8.60;3.70;;;;;;;16.33;100.00;97768.75;5040423;28;20020;-62
2023/08/01 01:51:26;;;;;;;7.53;3.55;;;;;;;16.25;100.00;97768.47;5043140;28;20472;-62
2023/08/01 01:53:52;;;;;;;10.15;3.72;;;;;;;16.16;100.00;97758.03;5048067;28;20504;-62
2023/08/01 01:56:17;;;;;;;13.07;4.40;;;;;;;16.16;100.00;97755.28;5039704;28;20029;-62
2023/08/01 01:58:43;;;;;;;10.02;4.00;;;;;;;16.11;100.00;97746.25;5039270;28;20029;-62
2023/08/01 02:01:09;;;;;;;9.50;4.32;;;;;;;16.06;100.00;97741.63;5036655;28;20059;-63
2023/08/01 02:03:35;;;;;;;9.75;3.75;;;;;;;16.10;100.00;97722.81;5038502;28;20083;-64
2023/08/01 02:06:03;;;;;;;6.07;3.55;;;;;;;16.08;100.00;97724.97;5035556;28;20033;-63
2023/08/01 02:08:28;;;;;;;7.60;3.75;;;;;;;16.06;100.00;97722.53;5052119;28;20403;-67
2023/08/01 02:10:55;;;;;;;10.70;4.30;;;;;;;16.06;100.00;97722.53;5028256;28;20107;-67
2023/08/01 02:13:20;;;;;;;9.85;3.70;;;;;;;16.08;100.00;97722.25;5036926;28;20087;-62
2023/08/01 02:15:45;;;;;;;11.55;4.45;;;;;;;16.09;100.00;97748.47;5019841;28;20518;-62
2023/08/01 02:18:11;;;;;;;8.45;4.13;;;;;;;16.06;100.00;97735.31;5032005;28;20107;-63
2023/08/01 02:20:36;;;;;;;8.55;4.32;;;;;;;16.06;100.00;97733.44;5033337;28;20056;-63
2023/08/01 02:23:01;;;;;;;10.88;4.30;;;;;;;16.06;100.00;97713.50;5038171;28;20365;-63
2023/08/01 02:25:27;;;;;;;9.95;4.65;;;;;;;16.09;100.00;97726.63;5037307;28;20104;-63
2023/08/01 02:27:52;;;;;;;11.02;4.32;;;;;;;16.07;100.00;97715.16;5034317;28;20025;-62
2023/08/01 02:30:17;;;;;;;10.95;4.20;;;;;;;16.02;100.00;97709.66;5033011;28;20550;-62
2023/08/01 02:32:44;;;;;;;6.10;3.67;;;;;;;16.06;100.00;97710.75;5035224;28;20021;-63
2023/08/01 02:35:09;;;;;;;10.07;4.28;;;;;;;16.07;100.00;97702.31;5032160;28;20029;-63
2023/08/01 02:37:34;;;;;;;12.20;4.05;;;;;;;16.06;100.00;97708.03;5041330;28;20032;-63
2023/08/01 02:40:07;;;;;;;12.35;4.25;;;;;;;16.04;100.00;97716.50;5034331;28;20027;-63
2023/08/01 02:42:32;;;;;;;8.00;4.10;;;;;;;16.00;100.00;97720.84;5035726;28;20033;-62
2023/08/01 02:44:58;;;;;;;13.32;4.18;;;;;;;16.03;100.00;97716.75;5026731;28;20083;-62
2023/08/01 02:47:23;;;;;;;8.35;4.20;;;;;;;15.99;100.00;97711.84;5045843;28;20494;-62
2023/08/01 02:49:48;;;;;;;10.48;4.30;;;;;;;16.03;100.00;97701.22;5033096;28;20026;-62
2023/08/01 02:52:14;;;;;;;8.90;4.32;;;;;;;16.01;100.00;97692.50;5033905;28;20025;-61
2023/08/01 02:54:39;;;;;;;16.95;4.72;;;;;;;16.02;100.00;97698.75;5036987;28;20112;-61
2023/08/01 02:57:04;;;;;;;9.95;4.20;;;;;;;16.00;100.00;97694.38;5031993;28;20476;-61
2023/08/01 02:59:32;;;;;;;9.23;4.25;;;;;;;16.01;100.00;97697.94;5030970;28;20064;-61
2023/08/01 03:01:59;;;;;;;8.55;3.80;;;;;;;16.03;100.00;97686.75;5029854;28;20082;-67
2023/08/01 03:04:24;;;;;;;11.07;4.13;;;;;;;16.07;100.00;97687.88;5028327;28;20071;-67
2023/08/01 03:06:50;;;;;;;11.27;4.13;;;;;;;16.08;100.00;97681.31;5038311;28;20028;-67
2023/08/01 03:09:15;;;;;;;8.10;3.95;;;;;;;16.06;100.00;97680.75;5039302;28;20021;-68
2023/08/01 03:11:41;;;;;;;7.53;3.80;;;;;;;16.13;100.00;97684.88;5033136;28;20070;-68
2023/08/01 03:14:07;;;;;;;8.80;4.05;;;;;;;16.14;100.00;97675.63;5048540;28;20033;-68
2023/08/01 03:16:32;;;;;;;8.55;4.50;;;;;;;16.14;100.00;97680.28;5035062;28;20032;-61
2023/08/01 03:19:04;;;;;;;8.45;4.13;;;;;;;16.16;100.00;97681.63;5030808;28;20017;-68
2023/08/01 03:21:32;;;;;;;11.80;4.70;;;;;;;16.16;100.00;97676.16;5027621;28;20454;-68
2023/08/01 03:23:58;;;;;;;9.38;3.92;;;;;;;16.15;100.00;97666.34;5036808;28;20495;-67
2023/08/01 03:26:23;;;;;;;10.82;4.25;;;;;;;16.18;100.00;97673.19;5029529;28;20040;-68
2023/08/01 03:28:49;;;;;;;9.00;4.47;;;;;;;16.16;100.00;97665.25;5032969;28;20028;-68
2023/08/01 03:31:15;;;;;;;9.23;4.30;;;;;;;16.15;100.00;97666.34;5038644;28;20033;-69
2023/08/01 03:33:40;;;;;;;6.15;3.97;;;;;;;16.18;100.00;97671.25;5032461;28;20028;-68
2023/08/01 03:36:06;;;;;;;8.82;4.20;;;;;;;16.15;100.00;97660.06;5056515;28;20035;-69
2023/08/01 03:38:31;;;;;;;13.43;4.22;;;;;;;16.16;100.00;97656.25;5030447;28;20031;-68
2023/08/01 03:40:57;;;;;;;10.13;4.50;;;;;;;16.20;100.00;97665.53;5037636;28;20118;-62
2023/08/01 03:43:23;;;;;;;9.77;4.05;;;;;;;16.17;100.00;97664.16;5033928;28;20033;-62
2023/08/01 03:45:49;;;;;;;9.02;3.40;;;;;;;16.17;100.00;97649.72;5033963;28;20024;-68
2023/08/01 03:48:15;;;;;;;9.77;3.75;;;;;;;16.24;100.00;97633.06;5031947;28;20027;-69
2023/08/01 03:50:40;;;;;;;12.57;4.38;;;;;;;16.25;100.00;97624.63;5037378;28;20020;-70
2023/08/01 03:53:07;;;;;;;8.68;3.75;;;;;;;16.15;100.00;97622.69;5036464;28;20112;-69
2023/08/01 03:55:32;;;;;;;7.13;3.88;;;;;;;16.20;100.00;97621.88;5031964;28;20033;-70
2023/08/01 03:57:58;;;;;;;7.07;3.30;;;;;;;16.23;100.00;97601.44;5034516;28;20020;-69
2023/08/01 04:00:24;;;;;;;8.18;3.47;;;;;;;16.25;100.00;97593.78;5047271;28;20040;-68
2023/08/01 04:02:49;;;;;;;6.57;3.60;;;;;;;16.28;100.00;97602.25;5041003;28;20043;-68
2023/08/01 04:05:15;;;;;;;6.82;3.60;;;;;;;16.28;100.00;97593.25;5040637;28;20055;-68
2023/08/01 04:07:41;;;;;;;6.10;3.35;;;;;;;16.31;100.00;97571.69;5035082;28;20061;-61
2023/08/01 04:10:07;;;;;;;9.05;3.70;;;;;;;16.34;100.00;97570.31;5050404;28;20029;-61
2023/08/01 04:12:33;;;;;;;11.38;4.57;;;;;;;16.40;100.00;97541.94;5035611;28;20611;-61
2023/08/01 04:15:00;;;;;;;8.90;4.03;;;;;;;16.47;100.00;97530.75;5034950;28;20018;-68
2023/08/01 04:17:26;;;;;;;7.43;3.67;;;;;;;16.66;100.00;97507.25;5035078;28;20468;-68
2023/08/01 04:19:52;;;;;;;5.90;3.28;;;;;;;16.75;100.00;97515.72;5042790;28;20024;-69
2023/08/01 04:22:17;;;;;;;4.65;2.95;;;;;;;16.80;100.00;97535.69;5035649;28;20033;-61
2023/08/01 04:24:43;;;;;;;6.30;2.95;;;;;;;16.89;100.00;97538.69;5032622;28;20025;-61
2023/08/01 04:27:08;;;;;;;5.95;3.55;;;;;;;16.81;100.00;97555.63;5030926;28;20022;-61
2023/08/01 04:29:34;;;;;;;8.90;3.17;;;;;;;16.78;100.00;97559.72;5039978;28;20025;-61
2023/08/01 04:32:00;;;;;;;4.15;2.50;;;;;;;16.72;100.00;97565.44;5036238;28;20029;-62
2023/08/01 04:34:25;;;;;;;6.47;2.63;;;;;;;16.69;100.00;97564.09;5035962;28;20035;-61
2023/08/01 04:36:51;;;;;;;6.82;3.30;;;;;;;16.60;100.00;97562.97;5023254;28;20054;-62
2023/08/01 04:39:16;;;;;;;5.93;3.17;;;;;;;16.64;100.00;97553.97;5029406;28;20031;-61
2023/08/01 04:41:43;;;;;;;5.88;3.13;;;;;;;16.58;100.00;97557.81;5033349;28;20025;-61
2023/08/01 04:44:08;;;;;;;5.55;3.47;;;;;;;16.51;100.00;97559.16;5039673;28;20031;-62
2023/08/01 04:46:33;;;;;;;10.80;4.20;;;;;;;16.48;100.00;97567.88;5034500;28;20029;-61
2023/08/01 04:48:59;;;;;;;7.13;4.00;;;;;;;16.46;100.00;97579.09;5039107;28;20020;-61
2023/08/01 04:51:25;;;;;;;7.13;3.47;;;;;;;16.43;100.00;97577.72;5025845;28;20559;-62
2023/08/01 04:53:51;;;;;;;8.18;3.53;;;;;;;16.43;100.00;97585.91;5031003;28;20018;-61
2023/08/01 04:56:16;;;;;;;7.07;3.60;;;;;;;16.41;100.00;97585.34;5037442;28;20509;-61
2023/08/01 04:58:42;;;;;;;8.13;3.65;;;;;;;16.41;100.00;97582.63;5036264;28;20020;-62
2023/08/01 05:01:07;;;;;;;7.03;3.47;;;;;;;16.44;100.00;97576.59;5035598;28;20392;-62
2023/08/01 05:03:32;;;;;;;7.32;3.60;;;;;;;16.33;100.00;97565.97;5034948;28;20048;-67
2023/08/01 05:05:58;;;;;;;10.57;3.67;;;;;;;16.40;100.00;97585.59;5031905;28;20431;-68
2023/08/01 05:08:23;;;;;;;5.93;3.33;;;;;;;16.40;100.00;97583.72;5040924;28;20027;-67
2023/08/01 05:10:49;;;;;;;7.18;3.75;;;;;;;16.40;100.00;97572.81;5027323;28;20033;-68
2023/08/01 05:13:14;;;;;;;6.07;3.85;;;;;;;16.42;100.00;97578.78;5030633;28;20025;-68
2023/08/01 05:15:39;;;;;;;7.95;3.58;;;;;;;16.42;100.00;97562.41;5032712;28;20032;-67
2023/08/01 05:18:05;;;;;;;6.80;3.60;;;;;;;16.49;100.00;97556.69;5035829;28;20070;-67
2023/08/01 05:20:31;;;;;;;6.70;4.07;;;;;;;16.59;100.00;97561.34;5041324;28;20186;-66
2023/08/01 05:22:59;;;;;;;6.53;4.20;;;;;;;16.58;100.00;97544.16;5042673;28;20013;-66
2023/08/01 05:25:25;;;;;;;9.27;3.77;;;;;;;16.61;100.00;97549.06;5042193;28;20025;-66
2023/08/01 05:27:50;;;;;;;8.10;3.60;;;;;;;16.56;100.00;97550.97;5037888;28;20381;-67
2023/08/01 05:30:16;;;;;;;7.40;3.60;;;;;;;16.55;100.00;97532.94;5040196;28;20029;-67
2023/08/01 05:32:43;;;;;;;6.93;3.05;;;;;;;16.53;100.00;97525.03;5028551;28;20024;-67
2023/08/01 05:35:09;;;;;;;4.78;2.38;;;;;;;16.70;100.00;97500.16;5035306;28;20468;-66
2023/08/01 05:37:35;;;;;;;6.82;2.70;;;;;;;16.68;100.00;97504.25;5039628;28;20021;-65
2023/08/01 05:40:03;;;;;;;7.72;2.92;;;;;;;16.73;100.00;97517.91;5058903;28;20492;-67
2023/08/01 05:42:28;;;;;;;8.35;3.40;;;;;;;16.70;100.00;97518.47;5039470;28;20028;-65
2023/08/01 05:44:53;;;;;;;6.20;2.38;;;;;;;16.66;100.00;97518.19;5036657;28;20427;-66
2023/08/01 05:47:19;;;;;;;4.57;2.40;;;;;;;16.70;100.00;97535.66;5033523;28;20045;-65
2023/08/01 05:49:44;;;;;;;3.88;2.17;;;;;;;16.71;100.00;97531.84;5025699;28;20029;-65
2023/08/01 05:52:10;;;;;;;5.65;2.72;;;;;;;16.73;100.00;97537.03;5035290;28;20039;-64
2023/08/01 05:54:35;;;;;;;6.70;2.80;;;;;;;16.74;100.00;97550.44;5031948;28;20060;-66
2023/08/01 05:57:01;;;;;;;5.97;2.38;;;;;;;16.72;100.00;97549.88;5042454;28;20028;-65
2023/08/01 05:59:26;;;;;;;6.72;2.40;;;;;;;16.77;100.00;97552.63;5038159;28;20090;-65
2023/08/01 06:01:52;;;;;;;6.35;2.50;;;;;;;16.77;100.00;97555.38;5038590;28;20048;-65
2023/08/01 06:04:17;;;;;;;5.57;2.58;;;;;;;16.70;100.00;97554.78;5042537;28;20028;-65
2023/08/01 06:09:19;;;;;;;7.25;2.17;;;;;;;16.65;100.00;97538.41;5033441;28;20496;-49
2023/08/01 06:11:44;;;;;;;8.75;2.85;;;;;;;16.70;100.00;97534.84;5008473;28;20067;-49
2023/08/01 06:14:10;;;;;;;5.35;2.72;;;;;;;16.71;100.00;97545.47;5016520;28;20079;-49
2023/08/01 06:16:35;;;;;;;7.93;2.60;;;;;;;16.77;100.00;97543.59;5009886;28;20022;-49
2023/08/01 06:19:02;;;;;;;7.80;2.85;;;;;;;16.79;100.00;97557.81;5015036;28;20445;-49
2023/08/01 06:21:27;;;;;;;6.20;2.60;;;;;;;16.84;100.00;97558.63;5002432;28;20032;-49
2023/08/01 06:23:53;;;;;;;4.60;2.80;;;;;;;16.88;100.00;97563.56;5016775;28;20025;-49
2023/08/01 06:26:18;;;;;;;6.80;2.78;;;;;;;16.94;100.00;97584.31;5017293;28;20047;-49
2023/08/01 06:28:43;;;;;;;6.45;2.83;;;;;;;16.98;100.00;97597.16;5011020;28;20025;-49
2023/08/01 06:31:09;;;;;;;7.63;2.83;;;;;;;17.00;100.00;97599.59;5032019;28;20025;-49
2023/08/01 06:33:34;;;;;;;6.40;2.50;;;;;;;16.97;100.00;97605.59;5011859;28;20032;-49
2023/08/01 06:36:00;;;;;;;7.00;2.42;;;;;;;16.91;100.00;97601.25;5010991;28;20060;-50
2023/08/01 06:38:25;;;;;;;6.82;2.78;;;;;;;16.88;100.00;97615.47;5005300;28;20096;-50
2023/08/01 06:40:50;;;;;;;6.45;2.85;;;;;;;16.75;100.00;97624.97;5006858;28;20038;-50
2023/08/01 06:43:16;;;;;;;12.48;2.83;;;;;;;16.63;100.00;97639.69;5009175;28;20076;-51
2023/08/01 06:45:41;;;;;;;8.32;3.20;;;;;;;16.56;100.00;97636.44;5008100;28;20021;-51
2023/08/01 06:48:08;;;;;;;8.93;2.97;;;;;;;16.52;100.00;97626.31;5011099;28;20049;-51
2023/08/01 06:50:33;;;;;;;8.20;4.88;;;;;;;16.55;100.00;97623.84;5007520;28;20044;-50
2023/08/01 06:52:59;;;;;;;11.35;3.80;;;;;;;16.54;100.00;97611.31;5017711;28;20108;-50
2023/08/01 06:55:24;;;;;;;10.45;3.75;;;;;;;16.44;100.00;97622.22;5016502;28;20021;-50
2023/08/01 06:57:50;;;;;;;8.13;3.38;;;;;;;16.22;100.00;97611.53;5013930;28;20021;-50
2023/08/01 07:00:16;;;;;;;5.78;3.10;;;;;;;16.13;100.00;97618.56;5032172;28;20036;-50
2023/08/01 07:02:41;;;;;;;8.05;3.38;;;;;;;16.13;100.00;97621.31;5009803;28;20116;-50
2023/08/01 07:05:07;;;;;;;10.63;3.53;;;;;;;16.27;100.00;97614.28;5018345;28;20109;-50
2023/08/01 07:07:32;;;;;;;14.07;3.22;;;;;;;16.38;100.00;97612.38;4997432;28;20425;-50
2023/08/01 07:09:58;;;;;;;11.00;4.22;;;;;;;16.31;100.00;97607.16;5009937;28;20059;-50
2023/08/01 07:12:23;;;;;;;10.32;4.20;;;;;;;16.42;100.00;97616.19;5026147;28;20087;-50
2023/08/01 07:14:48;;;;;;;11.05;4.28;;;;;;;16.86;100.00;97605.59;5010543;28;20018;-50
2023/08/01 07:17:14;;;;;;;9.65;4.15;;;;;;;16.62;100.00;97594.38;5010558;28;20079;-50
2023/08/01 07:19:39;;;;;;;12.48;4.53;;;;;;;16.11;100.00;97598.91;5007703;28;20029;-50
2023/08/01 07:22:05;;;;;;;13.35;5.35;;;;;;;16.06;100.00;97613.41;5009338;28;20063;-50
2023/08/01 07:24:30;;;;;;;10.00;4.68;;;;;;;16.05;100.00;97619.91;5014219;28;20041;-50
2023/08/01 07:26:55;;;;;;;9.38;4.63;;;;;;;16.05;100.00;97608.19;5015865;28;20029;-50
2023/08/01 07:29:21;;;;;;;9.95;4.80;;;;;;;16.16;100.00;97607.13;5011333;28;20049;-50
2023/08/01 07:31:46;;;;;;;11.65;4.50;;;;;;;16.18;100.00;97613.13;5028970;28;20038;-50
2023/08/01 07:34:12;;;;;;;12.18;4.50;;;;;;;16.25;100.00;97605.53;5014010;28;20023;-50
2023/08/01 07:36:37;;;;;;;13.52;4.88;;;;;;;16.27;100.00;97605.25;5004256;28;20123;-50
2023/08/01 07:39:03;;;;;;;12.82;4.75;;;;;;;16.16;100.00;97607.94;5012308;28;20041;-50
2023/08/01 07:41:28;;;;;;;13.30;4.88;;;;;;;16.12;100.00;97612.31;4998362;28;20040;-50
2023/08/01 07:43:54;;;;;;;8.77;4.32;;;;;;;16.08;100.00;97611.19;5017013;28;20040;-50
2023/08/01 07:46:19;;;;;;;14.65;4.72;;;;;;;16.11;100.00;97615.28;5028987;28;20025;-50
2023/08/01 07:48:44;;;;;;;14.20;4.72;;;;;;;16.09;100.00;97612.03;5007547;28;20098;-50
2023/08/01 07:51:11;;;;;;;10.23;5.38;;;;;;;16.04;100.00;97614.75;4984652;28;20084;-49
2023/08/01 07:53:37;;;;;;;9.48;5.03;;;;;;;16.04;100.00;97631.13;5009646;28;20029;-49
2023/08/01 07:56:02;;;;;;;9.05;4.90;;;;;;;16.14;100.00;97620.25;5016447;28;20025;-49
2023/08/01 07:58:29;;;;;;;10.63;5.30;;;;;;;16.25;100.00;97621.91;5032162;28;20084;-49
2023/08/01 08:00:55;;;;;;;8.32;4.47;;;;;;;16.33;100.00;97620.56;5008601;28;20530;-49
2023/08/01 08:03:22;;;;;;;12.02;4.45;;;;;;;16.42;100.00;97617.00;5006201;28;20029;-49
2023/08/01 08:05:48;;;;;;;10.52;4.68;;;;;;;16.60;100.00;97612.13;5014205;28;20090;-49
2023/08/01 08:08:14;;;;;;;7.45;4.25;;;;;;;16.60;100.00;97606.66;5031352;28;20487;-49
2023/08/01 08:10:39;;;;;;;9.30;4.07;;;;;;;16.58;100.00;97598.75;5010813;28;20022;-49
2023/08/01 08:13:04;;;;;;;8.05;3.42;;;;;;;16.42;100.00;97595.16;5011257;28;20049;-49
2023/08/01 08:15:34;;;;;;;9.23;4.30;;;;;;;16.42;100.00;97608.00;5001966;28;20049;-49
2023/08/01 08:18:04;;;;;;;10.30;4.00;;;;;;;16.46;100.00;97602.84;5009551;28;20058;-49
2023/08/01 08:20:29;;;;;;;;;;;;;;;16.45;100.00;97604.72;5002447;28;20064;-49
2023/08/01 08:22:54;;;;;;;7.53;3.67;;;;;;;16.39;100.00;97603.91;5004809;28;19909;-49
2023/08/01 08:25:20;;;;;;;8.85;4.18;;;;;;;16.48;100.00;97595.19;5013944;28;20067;-49
2023/08/01 08:27:45;;;;;;;11.35;3.88;;;;;;;16.68;100.00;97597.13;5008136;28;20029;-49
2023/08/01 08:30:11;;;;;;;7.57;3.33;;;;;;;16.79;100.00;97588.69;5008836;28;20112;-49
2023/08/01 08:32:36;;;;;;;9.85;3.67;;;;;;;16.92;100.00;97591.94;5011704;28;20060;-49
2023/08/01 08:35:02;;;;;;;7.72;3.50;;;;;;;17.04;100.00;97593.31;4996456;28;20124;-49
2023/08/01 08:37:27;;;;;;;8.50;3.55;;;;;;;17.08;100.00;97601.75;4999430;28;20025;-49
2023/08/01 08:39:53;;;;;;;6.75;3.38;;;;;;;17.02;100.00;97597.41;5005457;28;20040;-49
2023/08/01 08:42:19;;;;;;;5.40;2.90;;;;;;;16.97;100.00;97602.88;5007718;28;20037;-49
2023/08/01 08:44:50;;;;;;;4.88;3.30;;;;;;;16.88;100.00;97599.06;5011490;28;20044;-49
2023/08/01 08:47:18;;;;;;;10.60;3.38;;;;;;;16.93;100.00;97602.63;5015239;28;20116;-50
2023/08/01 08:49:46;;;;;;;6.25;3.05;;;;;;;16.72;100.00;97604.50;5006882;28;20030;-50
2023/08/01 08:52:11;;;;;;;4.88;2.83;;;;;;;16.64;100.00;97603.13;5014474;28;20025;-50
2023/08/01 08:54:38;;;;;;;7.57;2.75;;;;;;;16.57;100.00;97605.28;5022373;28;20075;-50
2023/08/01 08:57:06;;;;;;;4.45;2.50;;;;;;;16.66;100.00;97627.41;5006526;28;20033;-50
2023/08/01 08:59:33;;;;;;;4.25;2.35;;;;;;;16.50;100.00;97642.97;5026438;28;20025;-51
2023/08/01 09:02:00;;;;;;;5.68;2.65;;;;;;;16.51;100.00;97630.16;5024073;28;20033;-51
2023/08/01 09:04:27;;;;;;;6.70;2.20;;;;;;;16.52;100.00;97613.47;5006399;28;20028;-50
2023/08/01 09:06:58;;;;;;;3.72;1.90;;;;;;;16.62;100.00;97618.97;5008735;28;20021;-50
2023/08/01 09:09:26;;;;;;;5.97;2.45;;;;;;;16.73;100.00;97619.78;5031028;28;20065;-50
2023/08/01 09:11:53;;;;;;;3.13;1.92;;;;;;;16.74;100.00;97624.16;5012359;28;20021;-50
2023/08/01 09:14:19;;;;;;;4.90;2.00;;;;;;;16.72;100.00;97629.06;5011784;28;20025;-50
2023/08/01 09:16:46;;;;;;;5.00;1.90;;;;;;;16.59;100.00;97643.25;5007752;28;20029;-50
2023/08/01 09:19:21;;;;;;;5.05;1.80;;;;;;;16.50;100.00;97666.72;5012228;28;20063;-50
2023/08/01 09:21:47;;;;;;;6.93;2.45;;;;;;;16.43;100.00;97673.25;5005905;28;20058;-50
2023/08/01 09:24:18;;;;;;;5.20;2.55;;;;;;;16.41;100.00;97664.50;5015274;28;20021;-49
2023/08/01 09:26:45;;;;;;;5.15;1.88;;;;;;;16.63;100.00;97656.09;5015342;28;20473;-50
2023/08/01 09:29:10;;;;;;;4.10;1.90;;;;;;;16.61;100.00;97662.91;5023473;28;20116;-49
2023/08/01 09:31:38;;;;;;;5.30;2.13;;;;;;;16.62;100.00;97662.66;5006677;28;20108;-49
2023/08/01 09:34:05;;;;;;;6.75;2.60;;;;;;;16.79;100.00;97653.41;5016724;28;20018;-49
2023/08/01 09:36:31;;;;;;;4.88;2.45;;;;;;;17.39;100.00;97656.41;4995694;28;20040;-49
2023/08/01 09:39:03;;;;;;;3.60;1.92;;;;;;;17.88;100.00;97645.66;4997016;28;20038;-49
2023/08/01 09:41:30;;;;;;;4.95;2.63;;;;;;;18.57;100.00;97638.44;5006669;28;20040;-49
2023/08/01 09:43:56;;;;;;;5.95;2.83;;;;;;;19.45;100.00;97617.47;5012867;28;20025;-49
2023/08/01 09:46:22;;;;;;;4.35;1.98;;;;;;;19.89;100.00;97602.75;5006020;28;20034;-49
2023/08/01 09:48:47;;;;;;;2.15;1.25;;;;;;;20.08;100.00;97564.34;5024067;28;20109;-49
2023/08/01 09:51:14;;;;;;;3.83;1.65;;;;;;;20.26;100.00;97561.91;5011358;28;20488;-49
2023/08/01 09:54:06;;;;;;;2.35;1.42;;;;;;;20.14;100.00;97556.84;5014816;28;20029;-48
2023/08/01 09:56:33;;;;;;;2.35;1.40;;;;;;;20.80;100.00;97546.78;5021044;28;20039;-49
2023/08/01 09:59:00;;;;;;;2.83;1.30;;;;;;;21.00;100.00;97546.44;5011715;28;20361;-51
2023/08/01 10:01:27;;;;;;;1.98;0.98;;;;;;;20.87;100.00;97549.97;4997889;28;20025;-51
2023/08/01 10:03:53;;;;;;;2.53;1.10;;;;;;;20.86;100.00;97536.53;5000387;28;20030;-51
2023/08/01 10:06:23;;;;;;;2.03;0.88;;;;;;;19.76;100.00;97554.06;5004734;28;20502;-51
2023/08/01 10:08:51;;;;;;;1.48;0.93;;;;;;;19.26;100.00;97572.72;5009657;28;20061;-51
2023/08/01 10:11:21;;;;;;;5.63;0.70;;;;;;;19.14;100.00;97585.97;5026130;28;20025;-50
2023/08/01 10:13:48;;;;;;;5.15;1.40;;;;;;;19.50;100.00;97572.72;5013387;28;20068;-50
2023/08/01 10:16:15;;;;;;;1.75;0.90;;;;;;;18.96;100.00;97579.28;5007855;28;20035;-50
2023/08/01 10:18:41;;;;;;;1.45;0.50;;;;;;;19.51;100.00;97579.00;5008529;28;20424;-51
2023/08/01 10:21:08;;;;;;;2.67;0.52;;;;;;;19.14;100.00;97569.53;5007873;28;20037;-50
2023/08/01 10:23:35;;;;;;;1.58;0.52;;;;;;;19.34;100.00;97579.50;5010528;28;20163;-51
2023/08/01 10:26:03;;;;;;;1.50;0.35;;;;;;;19.24;100.00;97563.94;5032322;28;20021;-51
2023/08/01 10:28:37;;;;;;;1.15;0.30;;;;;;;18.70;100.00;97564.94;5006323;28;20120;-50
2023/08/01 10:31:14;;;;;;;0.95;0.38;;;;;;;19.11;100.00;97575.59;5010746;28;20032;-51
2023/08/01 10:33:45;;;;;;;0.75;0.30;;;;;;;20.03;100.00;97552.59;5009717;28;20044;-51
2023/08/01 10:36:18;;;;;;;7.13;0.55;;;;;;;20.44;100.00;97536.34;5009715;28;20500;-51
2023/08/01 10:38:55;;;;;;;0.40;0.30;;;;;;;22.23;100.00;97516.47;5008242;28;20021;-52
2023/08/01 10:41:27;;;;;;;1.00;0.30;;;;;;;24.23;100.00;97506.44;5013519;28;20026;-52
2023/08/01 10:44:10;;;;;;;0.68;0.30;;;;;;;27.12;100.00;97499.13;5024083;28;20108;-52
2023/08/01 10:46:47;;;;;;;0.60;0.35;;;;;;;27.95;100.00;97511.81;5013729;28;20049;-51
2023/08/01 10:49:13;;;;;;;0.40;0.20;;;;;;;28.76;100.00;97508.28;5015245;28;20125;-52
2023/08/01 10:51:39;;;;;;;0.50;0.40;;;;;;;29.57;100.00;97505.25;5013466;28;20029;-52
2023/08/01 10:54:04;;;;;;;0.38;0.30;;;;;;;30.06;97.46;97499.28;5010992;28;20068;-52
2023/08/01 10:56:31;;;;;;;1.23;0.30;;;;;;;30.04;98.70;97493.25;5029600;28;20032;-52
2023/08/01 10:58:58;;;;;;;0.60;0.30;;;;;;;29.92;93.91;97495.00;5009477;28;20047;-52
2023/08/01 11:01:26;;;;;;;1.08;0.47;;;;;;;29.02;92.99;97491.91;5009867;28;20031;-52
2023/08/01 11:03:51;;;;;;;1.00;0.47;;;;;;;28.42;100.00;97493.78;5011970;28;20226;-52
2023/08/01 11:06:17;;;;;;;1.38;0.47;;;;;;;29.92;100.00;97502.53;4999477;28;20116;-52
2023/08/01 11:08:43;;;;;;;1.17;0.40;;;;;;;29.00;97.74;97513.75;5004041;28;20089;-51
2023/08/01 11:11:12;;;;;;;1.15;0.50;;;;;;;26.88;100.00;97502.63;5009809;28;20025;-50
2023/08/01 11:13:38;;;;;;;2.38;0.60;;;;;;;28.21;100.00;97498.69;5002403;28;20034;-51
2023/08/01 11:16:07;;;;;;;1.10;0.40;;;;;;;28.61;81.04;97487.56;5007952;28;20036;-51
2023/08/01 11:18:45;;;;;;;1.48;0.57;;;;;;;30.46;74.83;97475.88;5002886;28;20048;-51
2023/08/01 11:21:10;;;;;;;2.00;0.60;;;;;;;30.38;72.80;97496.44;5004318;28;20350;-51
2023/08/01 11:23:38;;;;;;;1.35;0.47;;;;;;;32.78;64.58;97503.28;5012182;28;20318;-52